sensor_id;sensor_type;location;lat;lon;timestamp;P1;durP1;ratioP1;P2;durP2;ratioP2
27985;SDS011;15453;53.692;10.168;2023-09-18T00:00:42;4.90;;;4.20;;
27985;SDS011;15453;53.692;10.168;2023-09-18T00:03:09;6.82;;;4.40;;
27985;SDS011;15453;53.692;10.168;2023-09-18T00:05:34;6.05;;;4.00;;
27985;SDS011;15453;53.692;10.168;2023-09-18T00:08:00;5.32;;;4.43;;
27985;SDS011;15453;53.692;10.168;2023-09-18T00:10:27;6.00;;;3.97;;
27985;SDS011;15453;53.692;10.168;2023-09-18T00:12:54;5.38;;;4.13;;
27985;SDS011;15453;53.692;10.168;2023-09-18T00:15:19;4.57;;;3.88;;
27985;SDS011;15453;53.692;10.168;2023-09-18T00:17:45;4.50;;;3.90;;
27985;SDS011;15453;53.692;10.168;2023-09-18T00:20:10;4.53;;;4.13;;
27985;SDS011;15453;53.692;10.168;2023-09-18T00:22:35;6.63;;;4.30;;
27985;SDS011;15453;53.692;10.168;2023-09-18T00:25:01;4.90;;;4.40;;
27985;SDS011;15453;53.692;10.168;2023-09-18T00:27:29;9.00;;;4.13;;
27985;SDS011;15453;53.692;10.168;2023-09-18T00:29:54;5.10;;;3.90;;
27985;SDS011;15453;53.692;10.168;2023-09-18T00:32:20;4.88;;;4.00;;
27985;SDS011;15453;53.692;10.168;2023-09-18T00:34:45;6.18;;;4.10;;
27985;SDS011;15453;53.692;10.168;2023-09-18T00:37:11;5.28;;;4.20;;
27985;SDS011;15453;53.692;10.168;2023-09-18T00:39:37;5.05;;;4.00;;
27985;SDS011;15453;53.692;10.168;2023-09-18T00:42:02;4.68;;;3.67;;
27985;SDS011;15453;53.692;10.168;2023-09-18T00:44:28;4.75;;;3.97;;
27985;SDS011;15453;53.692;10.168;2023-09-18T00:46:53;4.97;;;4.20;;
27985;SDS011;15453;53.692;10.168;2023-09-18T00:49:20;5.85;;;4.15;;
27985;SDS011;15453;53.692;10.168;2023-09-18T00:51:47;5.70;;;4.10;;
27985;SDS011;15453;53.692;10.168;2023-09-18T00:54:13;5.38;;;4.22;;
27985;SDS011;15453;53.692;10.168;2023-09-18T00:56:41;8.23;;;3.90;;
27985;SDS011;15453;53.692;10.168;2023-09-18T00:59:06;4.95;;;4.28;;
27985;SDS011;15453;53.692;10.168;2023-09-18T01:01:33;5.10;;;4.13;;
27985;SDS011;15453;53.692;10.168;2023-09-18T01:03:58;5.05;;;4.22;;
27985;SDS011;15453;53.692;10.168;2023-09-18T01:06:24;7.82;;;4.43;;
27985;SDS011;15453;53.692;10.168;2023-09-18T01:08:52;5.22;;;4.20;;
27985;SDS011;15453;53.692;10.168;2023-09-18T01:11:20;5.05;;;4.03;;
27985;SDS011;15453;53.692;10.168;2023-09-18T01:16:53;6.15;;;4.28;;
27985;SDS011;15453;53.692;10.168;2023-09-18T01:19:34;4.80;;;4.22;;
27985;SDS011;15453;53.692;10.168;2023-09-18T01:22:01;4.80;;;4.22;;
27985;SDS011;15453;53.692;10.168;2023-09-18T01:24:26;5.10;;;4.00;;
27985;SDS011;15453;53.692;10.168;2023-09-18T01:26:52;8.40;;;4.18;;
27985;SDS011;15453;53.692;10.168;2023-09-18T01:29:17;4.43;;;3.90;;
27985;SDS011;15453;53.692;10.168;2023-09-18T01:31:44;5.60;;;3.90;;
27985;SDS011;15453;53.692;10.168;2023-09-18T01:34:12;6.18;;;4.60;;
27985;SDS011;15453;53.692;10.168;2023-09-18T01:36:37;4.55;;;3.90;;
27985;SDS011;15453;53.692;10.168;2023-09-18T01:39:03;5.28;;;3.92;;
27985;SDS011;15453;53.692;10.168;2023-09-18T01:41:30;5.30;;;4.47;;
27985;SDS011;15453;53.692;10.168;2023-09-18T01:43:56;4.28;;;3.78;;
27985;SDS011;15453;53.692;10.168;2023-09-18T01:46:21;5.65;;;3.90;;
27985;SDS011;15453;53.692;10.168;2023-09-18T01:48:47;5.28;;;4.07;;
27985;SDS011;15453;53.692;10.168;2023-09-18T01:51:13;7.38;;;4.28;;
27985;SDS011;15453;53.692;10.168;2023-09-18T01:53:40;4.97;;;4.05;;
27985;SDS011;15453;53.692;10.168;2023-09-18T01:56:05;4.50;;;4.07;;
27985;SDS011;15453;53.692;10.168;2023-09-18T01:58:30;7.28;;;4.70;;
27985;SDS011;15453;53.692;10.168;2023-09-18T02:00:55;5.70;;;4.47;;
27985;SDS011;15453;53.692;10.168;2023-09-18T02:03:21;5.30;;;4.13;;
27985;SDS011;15453;53.692;10.168;2023-09-18T02:05:47;5.20;;;4.18;;
27985;SDS011;15453;53.692;10.168;2023-09-18T02:08:12;5.28;;;4.78;;
27985;SDS011;15453;53.692;10.168;2023-09-18T02:10:37;4.47;;;4.07;;
27985;SDS011;15453;53.692;10.168;2023-09-18T02:13:02;7.20;;;4.10;;
27985;SDS011;15453;53.692;10.168;2023-09-18T02:15:29;6.65;;;4.40;;
27985;SDS011;15453;53.692;10.168;2023-09-18T02:17:56;5.85;;;4.25;;
27985;SDS011;15453;53.692;10.168;2023-09-18T02:20:21;5.80;;;4.30;;
27985;SDS011;15453;53.692;10.168;2023-09-18T02:22:46;8.65;;;4.50;;
27985;SDS011;15453;53.692;10.168;2023-09-18T02:25:12;5.32;;;4.32;;
27985;SDS011;15453;53.692;10.168;2023-09-18T02:27:37;5.43;;;4.20;;
27985;SDS011;15453;53.692;10.168;2023-09-18T02:30:02;5.85;;;4.35;;
27985;SDS011;15453;53.692;10.168;2023-09-18T02:32:28;5.05;;;4.35;;
27985;SDS011;15453;53.692;10.168;2023-09-18T02:34:53;4.40;;;4.00;;
27985;SDS011;15453;53.692;10.168;2023-09-18T02:37:18;8.00;;;4.43;;
27985;SDS011;15453;53.692;10.168;2023-09-18T02:39:44;5.15;;;4.22;;
27985;SDS011;15453;53.692;10.168;2023-09-18T02:42:09;4.88;;;4.38;;
27985;SDS011;15453;53.692;10.168;2023-09-18T02:44:34;4.93;;;4.30;;
27985;SDS011;15453;53.692;10.168;2023-09-18T02:47:00;4.90;;;3.97;;
27985;SDS011;15453;53.692;10.168;2023-09-18T02:49:26;5.07;;;4.38;;
27985;SDS011;15453;53.692;10.168;2023-09-18T02:51:51;4.55;;;4.15;;
27985;SDS011;15453;53.692;10.168;2023-09-18T02:54:16;6.77;;;4.70;;
27985;SDS011;15453;53.692;10.168;2023-09-18T02:56:41;5.05;;;4.40;;
27985;SDS011;15453;53.692;10.168;2023-09-18T02:59:06;4.80;;;4.03;;
27985;SDS011;15453;53.692;10.168;2023-09-18T03:01:32;6.85;;;4.60;;
27985;SDS011;15453;53.692;10.168;2023-09-18T03:03:57;5.28;;;4.38;;
27985;SDS011;15453;53.692;10.168;2023-09-18T03:06:22;4.87;;;4.20;;
27985;SDS011;15453;53.692;10.168;2023-09-18T03:08:48;4.65;;;4.15;;
27985;SDS011;15453;53.692;10.168;2023-09-18T03:11:13;6.28;;;4.70;;
27985;SDS011;15453;53.692;10.168;2023-09-18T03:13:45;6.20;;;4.30;;
27985;SDS011;15453;53.692;10.168;2023-09-18T03:16:11;5.03;;;4.53;;
27985;SDS011;15453;53.692;10.168;2023-09-18T03:18:37;4.82;;;4.43;;
27985;SDS011;15453;53.692;10.168;2023-09-18T03:21:02;5.03;;;4.43;;
27985;SDS011;15453;53.692;10.168;2023-09-18T03:23:29;6.00;;;4.80;;
27985;SDS011;15453;53.692;10.168;2023-09-18T03:25:54;5.93;;;4.03;;
27985;SDS011;15453;53.692;10.168;2023-09-18T03:28:19;8.23;;;4.80;;
27985;SDS011;15453;53.692;10.168;2023-09-18T03:30:45;4.85;;;4.45;;
27985;SDS011;15453;53.692;10.168;2023-09-18T03:33:10;4.32;;;3.92;;
27985;SDS011;15453;53.692;10.168;2023-09-18T03:35:44;5.47;;;4.40;;
27985;SDS011;15453;53.692;10.168;2023-09-18T03:38:13;4.85;;;4.25;;
27985;SDS011;15453;53.692;10.168;2023-09-18T03:40:39;5.20;;;4.70;;
27985;SDS011;15453;53.692;10.168;2023-09-18T03:43:04;6.03;;;4.60;;
27985;SDS011;15453;53.692;10.168;2023-09-18T03:45:29;4.90;;;4.50;;
27985;SDS011;15453;53.692;10.168;2023-09-18T03:47:55;5.15;;;4.65;;
27985;SDS011;15453;53.692;10.168;2023-09-18T03:50:20;4.80;;;4.32;;
27985;SDS011;15453;53.692;10.168;2023-09-18T03:52:45;5.30;;;4.57;;
27985;SDS011;15453;53.692;10.168;2023-09-18T03:55:11;4.80;;;4.30;;
27985;SDS011;15453;53.692;10.168;2023-09-18T03:57:36;5.13;;;4.60;;
27985;SDS011;15453;53.692;10.168;2023-09-18T04:00:04;6.13;;;4.57;;
27985;SDS011;15453;53.692;10.168;2023-09-18T04:02:32;6.32;;;5.03;;
27985;SDS011;15453;53.692;10.168;2023-09-18T04:04:57;6.05;;;4.80;;
27985;SDS011;15453;53.692;10.168;2023-09-18T04:07:23;8.02;;;4.78;;
27985;SDS011;15453;53.692;10.168;2023-09-18T04:09:48;5.78;;;4.90;;
27985;SDS011;15453;53.692;10.168;2023-09-18T04:12:13;5.40;;;4.55;;
27985;SDS011;15453;53.692;10.168;2023-09-18T04:14:39;5.45;;;4.63;;
27985;SDS011;15453;53.692;10.168;2023-09-18T04:17:04;5.43;;;4.82;;
27985;SDS011;15453;53.692;10.168;2023-09-18T04:19:30;6.45;;;5.20;;
27985;SDS011;15453;53.692;10.168;2023-09-18T04:21:55;5.65;;;5.05;;
27985;SDS011;15453;53.692;10.168;2023-09-18T04:24:21;4.93;;;4.32;;
27985;SDS011;15453;53.692;10.168;2023-09-18T04:26:47;6.32;;;4.93;;
27985;SDS011;15453;53.692;10.168;2023-09-18T04:29:15;5.70;;;4.15;;
27985;SDS011;15453;53.692;10.168;2023-09-18T04:31:41;9.02;;;4.55;;
27985;SDS011;15453;53.692;10.168;2023-09-18T04:34:06;6.57;;;4.55;;
27985;SDS011;15453;53.692;10.168;2023-09-18T04:36:31;6.03;;;4.47;;
27985;SDS011;15453;53.692;10.168;2023-09-18T04:38:57;6.65;;;4.70;;
27985;SDS011;15453;53.692;10.168;2023-09-18T04:41:22;5.23;;;4.43;;
27985;SDS011;15453;53.692;10.168;2023-09-18T04:43:47;5.45;;;4.75;;
27985;SDS011;15453;53.692;10.168;2023-09-18T04:46:13;6.45;;;4.82;;
27985;SDS011;15453;53.692;10.168;2023-09-18T04:48:38;7.50;;;4.50;;
27985;SDS011;15453;53.692;10.168;2023-09-18T04:51:04;5.15;;;4.65;;
27985;SDS011;15453;53.692;10.168;2023-09-18T04:53:30;5.25;;;4.75;;
27985;SDS011;15453;53.692;10.168;2023-09-18T04:55:56;7.05;;;4.65;;
27985;SDS011;15453;53.692;10.168;2023-09-18T04:58:21;6.40;;;4.82;;
27985;SDS011;15453;53.692;10.168;2023-09-18T05:00:47;5.72;;;4.85;;
27985;SDS011;15453;53.692;10.168;2023-09-18T05:03:17;5.10;;;4.32;;
27985;SDS011;15453;53.692;10.168;2023-09-18T05:05:43;6.70;;;5.10;;
27985;SDS011;15453;53.692;10.168;2023-09-18T05:08:09;6.43;;;4.97;;
27985;SDS011;15453;53.692;10.168;2023-09-18T05:10:34;7.35;;;5.28;;
27985;SDS011;15453;53.692;10.168;2023-09-18T05:12:59;5.90;;;4.93;;
27985;SDS011;15453;53.692;10.168;2023-09-18T05:15:25;7.82;;;5.45;;
27985;SDS011;15453;53.692;10.168;2023-09-18T05:17:51;5.85;;;5.25;;
27985;SDS011;15453;53.692;10.168;2023-09-18T05:20:20;6.78;;;5.32;;
27985;SDS011;15453;53.692;10.168;2023-09-18T05:22:49;7.40;;;5.13;;
27985;SDS011;15453;53.692;10.168;2023-09-18T05:25:15;6.00;;;4.55;;
27985;SDS011;15453;53.692;10.168;2023-09-18T05:27:41;7.40;;;5.15;;
27985;SDS011;15453;53.692;10.168;2023-09-18T05:30:13;8.55;;;5.18;;
27985;SDS011;15453;53.692;10.168;2023-09-18T05:32:41;6.93;;;5.53;;
27985;SDS011;15453;53.692;10.168;2023-09-18T05:35:08;5.60;;;4.97;;
27985;SDS011;15453;53.692;10.168;2023-09-18T05:37:35;5.57;;;5.05;;
27985;SDS011;15453;53.692;10.168;2023-09-18T05:40:03;7.05;;;5.35;;
27985;SDS011;15453;53.692;10.168;2023-09-18T05:42:34;5.97;;;5.07;;
27985;SDS011;15453;53.692;10.168;2023-09-18T05:45:04;5.68;;;5.07;;
27985;SDS011;15453;53.692;10.168;2023-09-18T05:47:31;6.70;;;5.25;;
27985;SDS011;15453;53.692;10.168;2023-09-18T05:49:57;6.22;;;5.25;;
27985;SDS011;15453;53.692;10.168;2023-09-18T05:52:23;6.13;;;5.53;;
27985;SDS011;15453;53.692;10.168;2023-09-18T05:54:49;6.32;;;5.55;;
27985;SDS011;15453;53.692;10.168;2023-09-18T05:57:15;7.47;;;5.28;;
27985;SDS011;15453;53.692;10.168;2023-09-18T05:59:41;7.13;;;5.38;;
27985;SDS011;15453;53.692;10.168;2023-09-18T06:02:08;5.88;;;4.93;;
27985;SDS011;15453;53.692;10.168;2023-09-18T06:04:34;6.47;;;4.97;;
27985;SDS011;15453;53.692;10.168;2023-09-18T06:07:02;6.97;;;4.80;;
27985;SDS011;15453;53.692;10.168;2023-09-18T06:09:28;5.63;;;4.97;;
27985;SDS011;15453;53.692;10.168;2023-09-18T06:11:53;5.75;;;5.13;;
27985;SDS011;15453;53.692;10.168;2023-09-18T06:14:18;6.10;;;5.35;;
27985;SDS011;15453;53.692;10.168;2023-09-18T06:16:43;9.27;;;4.88;;
27985;SDS011;15453;53.692;10.168;2023-09-18T06:19:09;6.13;;;4.82;;
27985;SDS011;15453;53.692;10.168;2023-09-18T06:21:34;6.03;;;4.68;;
27985;SDS011;15453;53.692;10.168;2023-09-18T06:23:59;6.32;;;4.72;;
27985;SDS011;15453;53.692;10.168;2023-09-18T06:26:24;5.45;;;4.88;;
27985;SDS011;15453;53.692;10.168;2023-09-18T06:28:50;5.40;;;4.90;;
27985;SDS011;15453;53.692;10.168;2023-09-18T06:31:16;6.75;;;5.55;;
27985;SDS011;15453;53.692;10.168;2023-09-18T06:33:41;5.55;;;5.05;;
27985;SDS011;15453;53.692;10.168;2023-09-18T06:36:06;5.60;;;5.05;;
27985;SDS011;15453;53.692;10.168;2023-09-18T06:38:32;7.43;;;5.13;;
27985;SDS011;15453;53.692;10.168;2023-09-18T06:40:57;6.65;;;5.20;;
27985;SDS011;15453;53.692;10.168;2023-09-18T06:43:22;7.00;;;5.43;;
27985;SDS011;15453;53.692;10.168;2023-09-18T06:45:48;6.53;;;4.78;;
27985;SDS011;15453;53.692;10.168;2023-09-18T06:48:13;7.50;;;4.90;;
27985;SDS011;15453;53.692;10.168;2023-09-18T06:50:39;5.43;;;4.93;;
27985;SDS011;15453;53.692;10.168;2023-09-18T06:53:05;6.45;;;5.47;;
27985;SDS011;15453;53.692;10.168;2023-09-18T06:55:30;8.27;;;5.20;;
27985;SDS011;15453;53.692;10.168;2023-09-18T06:57:55;4.85;;;4.32;;
27985;SDS011;15453;53.692;10.168;2023-09-18T07:00:20;6.85;;;4.78;;
27985;SDS011;15453;53.692;10.168;2023-09-18T07:02:46;6.53;;;4.60;;
27985;SDS011;15453;53.692;10.168;2023-09-18T07:05:12;5.63;;;5.03;;
27985;SDS011;15453;53.692;10.168;2023-09-18T07:07:37;7.82;;;5.30;;
27985;SDS011;15453;53.692;10.168;2023-09-18T07:10:03;14.57;;;4.90;;
27985;SDS011;15453;53.692;10.168;2023-09-18T07:12:29;5.97;;;5.22;;
27985;SDS011;15453;53.692;10.168;2023-09-18T07:14:54;5.30;;;4.78;;
27985;SDS011;15453;53.692;10.168;2023-09-18T07:17:19;7.10;;;5.18;;
27985;SDS011;15453;53.692;10.168;2023-09-18T07:19:45;6.07;;;5.15;;
27985;SDS011;15453;53.692;10.168;2023-09-18T07:22:10;5.70;;;4.60;;
27985;SDS011;15453;53.692;10.168;2023-09-18T07:24:35;5.20;;;4.60;;
27985;SDS011;15453;53.692;10.168;2023-09-18T07:27:01;5.30;;;4.80;;
27985;SDS011;15453;53.692;10.168;2023-09-18T07:29:28;5.18;;;4.57;;
27985;SDS011;15453;53.692;10.168;2023-09-18T07:31:54;5.93;;;4.95;;
27985;SDS011;15453;53.692;10.168;2023-09-18T07:34:19;5.55;;;4.68;;
27985;SDS011;15453;53.692;10.168;2023-09-18T07:36:44;6.63;;;5.10;;
27985;SDS011;15453;53.692;10.168;2023-09-18T07:39:10;4.60;;;4.18;;
27985;SDS011;15453;53.692;10.168;2023-09-18T07:41:36;7.80;;;4.65;;
27985;SDS011;15453;53.692;10.168;2023-09-18T07:44:02;5.47;;;4.70;;
27985;SDS011;15453;53.692;10.168;2023-09-18T07:46:27;6.75;;;5.00;;
27985;SDS011;15453;53.692;10.168;2023-09-18T07:48:52;5.10;;;4.38;;
27985;SDS011;15453;53.692;10.168;2023-09-18T07:51:17;6.63;;;4.95;;
27985;SDS011;15453;53.692;10.168;2023-09-18T07:53:43;5.78;;;4.40;;
27985;SDS011;15453;53.692;10.168;2023-09-18T07:56:09;5.18;;;4.68;;
27985;SDS011;15453;53.692;10.168;2023-09-18T07:58:35;4.97;;;4.30;;
27985;SDS011;15453;53.692;10.168;2023-09-18T08:01:04;4.40;;;4.00;;
27985;SDS011;15453;53.692;10.168;2023-09-18T08:03:30;5.13;;;4.07;;
27985;SDS011;15453;53.692;10.168;2023-09-18T08:05:57;4.43;;;4.03;;
27985;SDS011;15453;53.692;10.168;2023-09-18T08:08:22;4.78;;;4.28;;
27985;SDS011;15453;53.692;10.168;2023-09-18T08:10:49;4.63;;;4.22;;
27985;SDS011;15453;53.692;10.168;2023-09-18T08:13:15;6.07;;;4.70;;
27985;SDS011;15453;53.692;10.168;2023-09-18T08:15:41;6.32;;;4.50;;
27985;SDS011;15453;53.692;10.168;2023-09-18T08:18:06;4.63;;;4.22;;
27985;SDS011;15453;53.692;10.168;2023-09-18T08:20:31;4.82;;;4.30;;
27985;SDS011;15453;53.692;10.168;2023-09-18T08:22:58;4.60;;;4.03;;
27985;SDS011;15453;53.692;10.168;2023-09-18T08:25:26;5.35;;;4.10;;
27985;SDS011;15453;53.692;10.168;2023-09-18T08:27:51;5.55;;;3.92;;
27985;SDS011;15453;53.692;10.168;2023-09-18T08:30:17;4.97;;;3.87;;
27985;SDS011;15453;53.692;10.168;2023-09-18T08:32:45;4.70;;;4.13;;
27985;SDS011;15453;53.692;10.168;2023-09-18T08:35:11;4.68;;;3.80;;
27985;SDS011;15453;53.692;10.168;2023-09-18T08:37:36;5.17;;;4.37;;
27985;SDS011;15453;53.692;10.168;2023-09-18T08:40:01;4.83;;;4.20;;
27985;SDS011;15453;53.692;10.168;2023-09-18T08:42:34;4.40;;;4.00;;
27985;SDS011;15453;53.692;10.168;2023-09-18T08:45:00;4.65;;;4.07;;
27985;SDS011;15453;53.692;10.168;2023-09-18T08:47:26;5.38;;;4.45;;
27985;SDS011;15453;53.692;10.168;2023-09-18T08:49:52;5.55;;;4.25;;
27985;SDS011;15453;53.692;10.168;2023-09-18T08:52:20;4.38;;;3.97;;
27985;SDS011;15453;53.692;10.168;2023-09-18T08:54:47;7.43;;;4.32;;
27985;SDS011;15453;53.692;10.168;2023-09-18T08:57:12;4.65;;;3.80;;
27985;SDS011;15453;53.692;10.168;2023-09-18T08:59:39;5.47;;;4.18;;
27985;SDS011;15453;53.692;10.168;2023-09-18T09:02:05;4.13;;;3.72;;
27985;SDS011;15453;53.692;10.168;2023-09-18T09:04:31;4.18;;;3.75;;
27985;SDS011;15453;53.692;10.168;2023-09-18T09:06:56;4.63;;;3.73;;
27985;SDS011;15453;53.692;10.168;2023-09-18T09:09:24;5.32;;;3.72;;
27985;SDS011;15453;53.692;10.168;2023-09-18T09:11:51;6.97;;;3.65;;
27985;SDS011;15453;53.692;10.168;2023-09-18T09:14:17;10.32;;;4.03;;
27985;SDS011;15453;53.692;10.168;2023-09-18T09:16:47;5.57;;;4.10;;
27985;SDS011;15453;53.692;10.168;2023-09-18T09:19:16;6.00;;;4.15;;
27985;SDS011;15453;53.692;10.168;2023-09-18T09:21:42;6.82;;;4.72;;
27985;SDS011;15453;53.692;10.168;2023-09-18T09:24:09;4.65;;;4.00;;
27985;SDS011;15453;53.692;10.168;2023-09-18T09:26:43;5.05;;;4.05;;
27985;SDS011;15453;53.692;10.168;2023-09-18T09:29:18;6.78;;;4.03;;
27985;SDS011;15453;53.692;10.168;2023-09-18T09:31:45;5.30;;;3.80;;
27985;SDS011;15453;53.692;10.168;2023-09-18T09:34:11;4.68;;;4.10;;
27985;SDS011;15453;53.692;10.168;2023-09-18T09:36:53;5.18;;;4.10;;
27985;SDS011;15453;53.692;10.168;2023-09-18T09:39:19;4.25;;;3.85;;
27985;SDS011;15453;53.692;10.168;2023-09-18T09:41:46;5.93;;;4.15;;
27985;SDS011;15453;53.692;10.168;2023-09-18T09:44:13;4.30;;;3.78;;
27985;SDS011;15453;53.692;10.168;2023-09-18T09:46:44;5.18;;;4.10;;
27985;SDS011;15453;53.692;10.168;2023-09-18T09:49:10;4.53;;;4.05;;
27985;SDS011;15453;53.692;10.168;2023-09-18T09:51:35;5.40;;;4.07;;
27985;SDS011;15453;53.692;10.168;2023-09-18T09:54:01;4.63;;;3.78;;
27985;SDS011;15453;53.692;10.168;2023-09-18T09:56:43;5.47;;;4.10;;
27985;SDS011;15453;53.692;10.168;2023-09-18T09:59:19;6.80;;;3.78;;
27985;SDS011;15453;53.692;10.168;2023-09-18T10:01:47;4.93;;;4.00;;
27985;SDS011;15453;53.692;10.168;2023-09-18T10:04:15;6.45;;;4.30;;
27985;SDS011;15453;53.692;10.168;2023-09-18T10:06:43;6.38;;;3.75;;
27985;SDS011;15453;53.692;10.168;2023-09-18T10:09:13;4.53;;;3.50;;
27985;SDS011;15453;53.692;10.168;2023-09-18T10:11:41;5.75;;;4.22;;
27985;SDS011;15453;53.692;10.168;2023-09-18T10:14:14;6.28;;;3.63;;
27985;SDS011;15453;53.692;10.168;2023-09-18T10:16:41;4.05;;;3.50;;
27985;SDS011;15453;53.692;10.168;2023-09-18T10:21:48;5.35;;;3.63;;
27985;SDS011;15453;53.692;10.168;2023-09-18T10:26:57;5.40;;;3.97;;
27985;SDS011;15453;53.692;10.168;2023-09-18T10:29:24;7.38;;;4.60;;
27985;SDS011;15453;53.692;10.168;2023-09-18T10:31:50;5.88;;;4.18;;
27985;SDS011;15453;53.692;10.168;2023-09-18T10:34:17;5.70;;;3.60;;
27985;SDS011;15453;53.692;10.168;2023-09-18T10:36:44;11.32;;;3.95;;
27985;SDS011;15453;53.692;10.168;2023-09-18T10:39:11;7.13;;;3.85;;
27985;SDS011;15453;53.692;10.168;2023-09-18T10:41:38;5.63;;;3.90;;
27985;SDS011;15453;53.692;10.168;2023-09-18T10:44:04;6.53;;;4.03;;
27985;SDS011;15453;53.692;10.168;2023-09-18T10:46:30;6.85;;;3.50;;
27985;SDS011;15453;53.692;10.168;2023-09-18T10:48:57;5.07;;;3.30;;
27985;SDS011;15453;53.692;10.168;2023-09-18T10:51:24;6.05;;;3.75;;
27985;SDS011;15453;53.692;10.168;2023-09-18T10:53:50;5.07;;;3.40;;
27985;SDS011;15453;53.692;10.168;2023-09-18T10:56:17;6.00;;;3.58;;
27985;SDS011;15453;53.692;10.168;2023-09-18T10:58:45;4.18;;;3.55;;
27985;SDS011;15453;53.692;10.168;2023-09-18T11:01:13;4.38;;;3.72;;
27985;SDS011;15453;53.692;10.168;2023-09-18T11:03:38;6.47;;;3.97;;
27985;SDS011;15453;53.692;10.168;2023-09-18T11:06:05;6.90;;;4.20;;
27985;SDS011;15453;53.692;10.168;2023-09-18T11:08:42;6.18;;;3.80;;
27985;SDS011;15453;53.692;10.168;2023-09-18T11:11:11;5.77;;;3.40;;
27985;SDS011;15453;53.692;10.168;2023-09-18T11:13:46;4.57;;;3.75;;
27985;SDS011;15453;53.692;10.168;2023-09-18T11:16:16;6.65;;;3.80;;
27985;SDS011;15453;53.692;10.168;2023-09-18T11:18:53;8.70;;;3.88;;
27985;SDS011;15453;53.692;10.168;2023-09-18T11:21:30;7.32;;;3.95;;
27985;SDS011;15453;53.692;10.168;2023-09-18T11:24:16;5.70;;;3.60;;
27985;SDS011;15453;53.692;10.168;2023-09-18T11:26:44;8.23;;;4.38;;
27985;SDS011;15453;53.692;10.168;2023-09-18T11:29:14;7.75;;;3.90;;
27985;SDS011;15453;53.692;10.168;2023-09-18T11:31:43;5.28;;;4.00;;
27985;SDS011;15453;53.692;10.168;2023-09-18T11:36:41;8.90;;;3.80;;
27985;SDS011;15453;53.692;10.168;2023-09-18T11:39:07;6.63;;;3.38;;
27985;SDS011;15453;53.692;10.168;2023-09-18T11:41:34;10.80;;;4.20;;
27985;SDS011;15453;53.692;10.168;2023-09-18T11:46:48;6.32;;;4.07;;
27985;SDS011;15453;53.692;10.168;2023-09-18T11:49:21;5.97;;;3.60;;
27985;SDS011;15453;53.692;10.168;2023-09-18T11:51:47;4.45;;;3.50;;
27985;SDS011;15453;53.692;10.168;2023-09-18T11:54:15;5.28;;;3.80;;
27985;SDS011;15453;53.692;10.168;2023-09-18T11:56:41;12.77;;;3.42;;
27985;SDS011;15453;53.692;10.168;2023-09-18T11:59:07;7.47;;;3.70;;
27985;SDS011;15453;53.692;10.168;2023-09-18T12:01:34;7.53;;;4.10;;
27985;SDS011;15453;53.692;10.168;2023-09-18T12:04:04;10.50;;;5.57;;
27985;SDS011;15453;53.692;10.168;2023-09-18T12:06:33;7.70;;;4.57;;
27985;SDS011;15453;53.692;10.168;2023-09-18T12:08:59;7.25;;;4.60;;
27985;SDS011;15453;53.692;10.168;2023-09-18T12:11:24;6.75;;;3.95;;
27985;SDS011;15453;53.692;10.168;2023-09-18T12:13:51;9.43;;;3.83;;
27985;SDS011;15453;53.692;10.168;2023-09-18T12:16:17;10.90;;;3.50;;
27985;SDS011;15453;53.692;10.168;2023-09-18T12:18:47;6.60;;;3.47;;
27985;SDS011;15453;53.692;10.168;2023-09-18T12:21:13;6.38;;;3.35;;
27985;SDS011;15453;53.692;10.168;2023-09-18T12:23:40;8.60;;;4.13;;
27985;SDS011;15453;53.692;10.168;2023-09-18T12:26:09;7.57;;;3.40;;
27985;SDS011;15453;53.692;10.168;2023-09-18T12:31:03;9.18;;;2.70;;
27985;SDS011;15453;53.692;10.168;2023-09-18T12:33:38;5.63;;;2.65;;
27985;SDS011;15453;53.692;10.168;2023-09-18T12:36:05;4.82;;;2.78;;
27985;SDS011;15453;53.692;10.168;2023-09-18T12:38:32;7.00;;;2.95;;
27985;SDS011;15453;53.692;10.168;2023-09-18T12:40:58;6.88;;;3.47;;
27985;SDS011;15453;53.692;10.168;2023-09-18T12:43:32;7.68;;;3.10;;
27985;SDS011;15453;53.692;10.168;2023-09-18T12:45:59;10.68;;;2.97;;
27985;SDS011;15453;53.692;10.168;2023-09-18T12:48:25;7.72;;;2.83;;
27985;SDS011;15453;53.692;10.168;2023-09-18T12:50:51;4.60;;;2.30;;
27985;SDS011;15453;53.692;10.168;2023-09-18T12:53:21;6.50;;;2.58;;
27985;SDS011;15453;53.692;10.168;2023-09-18T12:55:47;6.47;;;3.05;;
27985;SDS011;15453;53.692;10.168;2023-09-18T12:58:13;5.38;;;2.60;;
27985;SDS011;15453;53.692;10.168;2023-09-18T13:03:12;6.53;;;2.45;;
27985;SDS011;15453;53.692;10.168;2023-09-18T13:05:38;8.77;;;3.85;;
27985;SDS011;15453;53.692;10.168;2023-09-18T13:08:05;7.97;;;3.10;;
27985;SDS011;15453;53.692;10.168;2023-09-18T13:10:46;9.65;;;3.20;;
27985;SDS011;15453;53.692;10.168;2023-09-18T13:13:21;6.65;;;2.83;;
27985;SDS011;15453;53.692;10.168;2023-09-18T13:15:47;6.38;;;2.70;;
27985;SDS011;15453;53.692;10.168;2023-09-18T13:18:13;6.35;;;3.25;;
27985;SDS011;15453;53.692;10.168;2023-09-18T13:20:39;4.82;;;2.60;;
27985;SDS011;15453;53.692;10.168;2023-09-18T13:23:08;6.38;;;2.15;;
27985;SDS011;15453;53.692;10.168;2023-09-18T13:25:36;8.20;;;2.83;;
27985;SDS011;15453;53.692;10.168;2023-09-18T13:28:04;6.65;;;2.50;;
27985;SDS011;15453;53.692;10.168;2023-09-18T13:30:31;8.57;;;3.15;;
27985;SDS011;15453;53.692;10.168;2023-09-18T13:33:13;8.43;;;4.63;;
27985;SDS011;15453;53.692;10.168;2023-09-18T13:35:42;9.52;;;4.70;;
27985;SDS011;15453;53.692;10.168;2023-09-18T13:38:10;7.10;;;4.50;;
27985;SDS011;15453;53.692;10.168;2023-09-18T13:40:37;8.80;;;4.55;;
27985;SDS011;15453;53.692;10.168;2023-09-18T13:43:03;12.30;;;5.60;;
27985;SDS011;15453;53.692;10.168;2023-09-18T13:45:32;9.68;;;4.00;;
27985;SDS011;15453;53.692;10.168;2023-09-18T13:48:00;6.70;;;3.33;;
27985;SDS011;15453;53.692;10.168;2023-09-18T13:50:25;10.70;;;3.78;;
27985;SDS011;15453;53.692;10.168;2023-09-18T13:52:51;8.35;;;3.40;;
27985;SDS011;15453;53.692;10.168;2023-09-18T13:55:16;5.90;;;2.53;;
27985;SDS011;15453;53.692;10.168;2023-09-18T13:57:42;8.02;;;2.53;;
27985;SDS011;15453;53.692;10.168;2023-09-18T14:00:08;6.25;;;2.20;;
27985;SDS011;15453;53.692;10.168;2023-09-18T14:02:37;5.55;;;2.30;;
27985;SDS011;15453;53.692;10.168;2023-09-18T14:05:03;4.10;;;2.28;;
27985;SDS011;15453;53.692;10.168;2023-09-18T14:07:30;4.80;;;2.65;;
27985;SDS011;15453;53.692;10.168;2023-09-18T14:09:55;6.28;;;2.33;;
27985;SDS011;15453;53.692;10.168;2023-09-18T14:12:20;7.55;;;2.90;;
27985;SDS011;15453;53.692;10.168;2023-09-18T14:14:46;8.55;;;2.60;;
27985;SDS011;15453;53.692;10.168;2023-09-18T14:17:11;4.18;;;1.75;;
27985;SDS011;15453;53.692;10.168;2023-09-18T14:19:37;4.72;;;2.05;;
27985;SDS011;15453;53.692;10.168;2023-09-18T14:22:06;3.83;;;2.25;;
27985;SDS011;15453;53.692;10.168;2023-09-18T14:24:31;7.72;;;3.47;;
27985;SDS011;15453;53.692;10.168;2023-09-18T14:26:59;5.50;;;3.13;;
27985;SDS011;15453;53.692;10.168;2023-09-18T14:29:25;10.60;;;3.47;;
27985;SDS011;15453;53.692;10.168;2023-09-18T14:31:51;11.55;;;3.42;;
27985;SDS011;15453;53.692;10.168;2023-09-18T14:34:17;10.82;;;3.50;;
27985;SDS011;15453;53.692;10.168;2023-09-18T14:36:42;16.50;;;3.42;;
27985;SDS011;15453;53.692;10.168;2023-09-18T14:39:09;5.13;;;2.72;;
27985;SDS011;15453;53.692;10.168;2023-09-18T14:41:35;5.47;;;2.70;;
27985;SDS011;15453;53.692;10.168;2023-09-18T14:44:02;6.32;;;3.47;;
27985;SDS011;15453;53.692;10.168;2023-09-18T14:46:31;7.38;;;3.22;;
27985;SDS011;15453;53.692;10.168;2023-09-18T14:49:00;5.63;;;3.00;;